Im Poliny Osipenko, Russia
Current Conditions -  °F | °C
As of 9:30 AM on Sunday 23 Nov 2014 (Local Time) from UHHH Reporting Station
Clear Clear  
Wind Chill: -4°   Ceiling: Unl
Heat Index:   Visibility: 6mi
Dew Point:   Wind: 9mph
Humidity: 79%   Direction: 210°SSW
Pressure: 30.24"   Gusts: NA
Location:  52.42°N, 136.5°E
Report Text: UHHH 222330Z 21004MPS CAVOK M13/M16 Q1024 NOSIG RMK QFE761/101523890540
Loading
Personal Weather Stations






























Interactive Weather Map New forecast layout! Learn more

10-Day Weather Forecast

Advertisements
Track Severe Weather on mobile